หน้าหลัก
METAR-TAF:

METAR-TAF

ท่าอากาศยาน :

ปราก, สาธารณรัฐเช็ก

ละติจูด: 50-06N, ลองจิจูด: 014-15E, ความสูง: 365 ม.

การสังเกตสภาพอากาศปัจจุบัน

รายงานได้ทำขึ้นเมื่อ 6 นาทีที่แล้ว ณ เวลา 02:00 UTC
ลม 3 นอตจากเหนือ
อุณหภูมิ 16°C
ความชื้น 77%
ความกดอากาศ 1022 hPa
ทัศนวิสัย 10 กม. หรือมากกว่า
ไม่มีเมฆต่ำกว่า 1,500 ม. และไม่มีเมฆคิวมูโลนิมบัส

METAR: LKPR 190200Z 01003KT CAVOK 16/12 Q1022 NOSIG

เวลา: 04:06 (02:06 UTC)

การพยากรณ์

รายงานได้ทำขึ้นเมื่อ 3 ชั่วโมงและ 6 นาทีที่แล้ว ณ เวลา 23:00 UTC
การพยากรณ์มีผลตั้งแต่วันที่ 19 ณ เวลา 00 UTC จนถึงวันที่ 20 ณ เวลา 06 UTC
ลม 5 นอตจากเหนือ/ตะวันออกเฉียงเหนือ
ทัศนวิสัย 10 กม. หรือมากกว่า
ไม่มีเมฆต่ำกว่า 1,500 ม. และไม่มีเมฆคิวมูโลนิมบัส
ชั่วคราว
ตั้งแต่วันที่ 19 ณ เวลา 09 UTC จนถึงวันที่ 19 ณ เวลา 13 UTC
ลม 8 นอตจากตะวันออก
ทัศนวิสัย 10 กม. หรือมากกว่า
มีเมฆกระจายเป็นบางส่วนที่ความสูง 4000 ฟุต

TAF: LKPR 182300Z 1900/2006 03005KT CAVOK TEMPO 1909/1913 09008KT 9999 SCT040

สังเกตการณ์สภาพอากาศและพยากรณ์อากาศของสนามบินมากกว่า 4000 แห่ง (รายงาน METAR และ TAF).

สถานีที่ดูได้จะแสดงไว้ด้วยจุดสีเหลืองและสีแดงบนแผนที่.

เลื่อนเมาส์ไปเหนือจุดเพื่อดูชื่อสถานี.

แล้วคลิกเพื่อดูสังเกตการณ์และการพยากรณ์สภาพอากาศ.

ในการเปลี่ยนแผนที่: คลิกที่ปุ่มสีเขียวที่มีกากบาทสีดำเพื่อซูมเข้า; ที่ปุ่มสีเขียวที่มีขีดเพื่อซูมออก; หรือที่ลูกศรสีเขียวเพื่อไปยังแผนที่ที่อยู่ติดกัน.


METAR-TAF: